Skip Navigation Links Skip Navigation Links

Current Weather

Watsonville Muni, Watsonville, Calif.

For information only: do not use for flight planning or navigation.
Latest weather
Observation time Tuesday, September 28, 2021 2:00 AM PDT
Local time Tuesday, September 28, 2021 2:46 AM PDT
Flight conditions Visual Meteorological Conditions
Winds
Wind direction Southeast (130°)
Wind speed 3 mph
Visibility 10 mi.
Sky condition
Ceiling unlimited
Cloud layer scattered clouds 400 ft.
Temperature 59°F
Dewpoint 58°F
Altimeter 30.06 in.Hg
Derived measurements
Relative humidity 96%
Density altitude 228 ft.
Remarks
Fully automated report.
Automated weather observing station with precipitation discriminator.
METAR KWVI 280900Z AUTO 13003KT 10SM SCT004 15/14 A3006 RMK AO2 T01500144

Settings

Location code

InnerDrive.Weather 4.0.6770.0 Release CLR 4.0.30319.42000
Copyright ©2018 Inner Drive Technology. All rights reserved. Portions Copyright ©1986-2018 David Braverman.

Find weather

Site navigation


Skip Navigation Links

Place info

Page info

PayPal - The safer, easier way to pay online!

Return home.

Copyright ©2021 Inner Drive Technology. Purveyors of fine, hand-crafted computer software. Page printed 2021-09-28T09:46:29 UTC.